Tropical Cyclones
[Index]
Main Index Home Page Stock Weather Photos Extreme Storms Discussion Storm News and Storm Chasing Reports Tropical Cyclones / Hurricanes / Typhoons Weather Data and Links Wild Fires / Bushfires Weather Observation Techniques Weather Picture Catalogue Tornado Pictures and Reports Stock Video Footage and DVDs for sale
Season 1982-1983 Tropical Cyclone BEMANY Track Map
Season 1982-1983 Summaries: [BoM-AU] [JTWC-AU] [JTWC-SIO] [JTWC-SPAC] [JTWC-SH]
<<- Previous TC | JTWC 1982-1983 Season | Next TC ->>

click for intensity scale information  Lat/long Grid: Show Hide

 Date Labels: Show Hide

Joint Typhoon Warning Centre Cyclone Data

Name: BEMANY

29 Nov 1982 12:00 UTC to 06 Dec 1982 00:00 UTC

    date/time    lat    long     hPa   cat  kts
1982-11-29 12    8.5    60.0                  25          
1982-11-29 18    8.7    58.7                  20          
1982-11-30 00    8.8    57.7                  20          
1982-11-30 06    8.9    56.8                  20          
1982-11-30 12    9.0    56.2                  20          
1982-11-30 18    9.0    55.7                  20          
1982-12-01 00    9.0    55.3                  25          
1982-12-01 06    9.1    54.9                  25          
1982-12-01 12    9.2    54.6                  30          
1982-12-01 18    9.4    54.3                  30          
1982-12-02 00    9.8    54.2                  35          
1982-12-02 06   10.4    54.4            1     40          
1982-12-02 12   11.2    54.8            1     45          
1982-12-02 18   12.1    55.3            1     50          
1982-12-03 00   13.0    55.7            2     55          
1982-12-03 06   14.0    56.2            2     60          
1982-12-03 12   15.3    56.6            2     65          
1982-12-03 18   16.7    57.6            2     65          
1982-12-04 00   18.2    58.8            2     65          
1982-12-04 06   19.7    59.3            2     65          
1982-12-04 12   21.2    59.8            2     60          
1982-12-04 18   22.4    60.6            2     60          
1982-12-05 00   23.3    61.4            2     55          
1982-12-05 06   24.0    62.3            1     50          
1982-12-05 12   24.3    63.2            1     45          
1982-12-05 18   24.3    63.9            1     40          
1982-12-06 00   24.0    64.4                  30          
Winds are 1-min average.

Tropical cyclone tracks developed by Michael Bath using data from the Joint Typhoon Warning Centre Best Tracks and Google Maps.


[Australian Severe Weather index] [Copyright Notice] [Email Contacts] [Search This Site] [Privacy Policy]
Document: tropical_cyclone_bemany.htm Updated: 18 September 2016